Vancouver, WA (98686)

12:01 AM PDT on October 23, 2014 (GMT -0700)
Salmon Creek | Change Station
CLOSE
Current Station
Personal Weather Station
Location: Vancouver, WA
Elevation: 200 ft
Nearby Weather Stations
Active Advisory: Special Statement Active Notice: Record Report

Elev 200 ft 45.71 °N, 122.65 °W | Updated 1 minute ago

Overcast
Overcast
54.1 °F
Feels Like 54.1 °F
N
0.0
Wind Variable Wind from ENE
Gusts 1.0 mph

Today
High -- | Low -- °F
--% Chance of Precip.
Yesterday
High -- | Low -- °F
Precip. -- in
7:38 AM 6:10 PM
Waning Crescent, 0% visible
Pressure 29.79 in
Visibility 10.0 miles
Clouds Mostly Cloudy 5500 ft
Overcast 8000 ft
Dew Point 52 °F
Humidity 94%
Rainfall 1.23 in
Snow Depth Not available.
UV 0 out of 12
Pollen .40 out of 12
Air Quality Not available.
Flu Activity Sporadic
METAR KVUO 230653Z AUTO 12003KT 10SM -RA BKN055 OVC080 13/11 A2979 RMK AO2 RAE14B36 SLP086 P0001 T01280106

More Conditions Fewer Conditions

Pressure 29.79 in
Visibility 10.0 miles
Clouds Mostly Cloudy 5500 ft
Overcast 8000 ft
Dew Point 52 °F
Humidity 94%
Rainfall 1.23 in
Snow Depth Not available.
UV 0 out of 12
Pollen .40 out of 12
Air Quality Not available.
Flu Activity Sporadic
METAR KVUO 230653Z AUTO 12003KT 10SM -RA BKN055 OVC080 13/11 A2979 RMK AO2 RAE14B36 SLP086 P0001 T01280106

More Conditions Fewer Conditions

10-Day Weather Forecast

Almanac

Astronomy

Oct. 23, 2014 Rise Set
Actual Time 7:38 AM PDT 6:10 PM PDT
Civil Twilight 7:07 AM PDT 6:41 PM PDT
Nautical Twilight 6:32 AM PDT 7:15 PM PDT
Astronomical Twilight 5:58 AM PDT 7:50 PM PDT
Moon 7:22 AM PDT 6:15 PM PDT
Length of Visible Light 11h 33m
Length of Day
10h 32m
Tomorrow will be 3m 1s shorter.
Waning Crescent, 0% of the Moon is Illuminated
Today
Waning Crescent
Oct 23
New
Oct 30
First Quarter
Nov 6
Full
Nov 14
Last Quarter

Community

WunderPhotos

Upload Photos

1,764,194 photos uploaded!

Nearby

Snow Depth

Station Depth Elevation
June Lake 0 in 3340 ft
Swift Creek 0 in 3770 ft
Spirit Lake 0 in 3120 ft
Spencer Meadow 0 in 3400 ft
Lone Pine 0 in 3800 ft

Earthquake Activity

City Distance Mag. Time & Date
No recent earthquake activity has been reported nearby.
Minimum magnitude displayed is 2.5.

Coastal Water Temperatures

Place Temperature
No Stations Reporting

Nearby Weather Stations